Time;durP1;ratioP1;P1;durP2;ratioP2;P2;SDS_P1;SDS_P2;PMS_P1;PMS_P2;Temp;Humidity;BMP_temperature;BMP_pressure;BME280_temperature;BME280_humidity;BME280_pressure;Samples;Min_cycle;Max_cycle;Signal;HPM_P1;HPM_P2
2022/03/20 00:00:15;;;;;;;5.68;5.03;;;;;;;;;;1618697;30;22240;-64
2022/03/20 00:01:07;;;;;;;4.82;4.43;;;;;;;;;;1616349;30;21606;-64
2022/03/20 00:01:59;;;;;;;5.20;4.80;;;;;;;;;;1617028;30;22083;-65
2022/03/20 00:02:50;;;;;;;4.63;4.30;;;;;;;;;;1616193;30;21871;-64
2022/03/20 00:03:43;;;;;;;5.25;4.85;;;;;;;;;;1616594;30;22268;-64
2022/03/20 00:04:34;;;;;;;4.75;4.45;;;;;;;;;;1616986;30;21819;-64
2022/03/20 00:05:26;;;;;;;4.72;4.32;;;;;;;;;;1617259;30;21841;-65
2022/03/20 00:06:17;;;;;;;5.30;4.68;;;;;;;;;;1618903;30;21617;-63
2022/03/20 00:07:12;;;;;;;5.13;4.72;;;;;;;;;;1616890;30;21657;-63
2022/03/20 00:08:08;;;;;;;5.50;5.00;;;;;;;;;;1617432;30;21712;-63
2022/03/20 00:09:00;;;;;;;4.22;3.92;;;;;;;;;;1616995;30;21615;-63
2022/03/20 00:09:52;;;;;;;4.90;4.60;;;;;;;;;;1616935;30;21710;-62
2022/03/20 00:10:46;;;;;;;4.70;4.40;;;;;;;;;;1617333;30;21692;-63
2022/03/20 00:11:38;;;;;;;4.82;4.45;;;;;;;;;;1616933;30;22375;-64
2022/03/20 00:12:30;;;;;;;5.07;4.55;;;;;;;;;;1616491;30;21905;-64
2022/03/20 00:13:23;;;;;;;6.25;4.40;;;;;;;;;;1617134;30;21606;-63
2022/03/20 00:14:15;;;;;;;4.75;4.35;;;;;;;;;;1618570;30;21706;-63
2022/03/20 00:15:08;;;;;;;4.75;4.43;;;;;;;;;;1616457;30;22303;-63
2022/03/20 00:16:01;;;;;;;4.72;4.28;;;;;;;;;;1617146;30;21997;-63
2022/03/20 00:16:53;;;;;;;6.97;4.10;;;;;;;;;;1618342;30;21646;-63
2022/03/20 00:17:45;;;;;;;4.50;4.18;;;;;;;;;;1616018;30;22748;-63
2022/03/20 00:18:36;;;;;;;5.07;4.60;;;;;;;;;;1617097;30;21600;-63
2022/03/20 00:19:28;;;;;;;4.47;4.15;;;;;;;;;;1617072;30;22674;-63
2022/03/20 00:20:20;;;;;;;4.60;4.30;;;;;;;;;;1618583;30;23203;-63
2022/03/20 00:21:12;;;;;;;7.53;4.00;;;;;;;;;;1616541;30;22579;-63
2022/03/20 00:22:04;;;;;;;6.00;3.95;;;;;;;;;;1619903;30;22150;-64
2022/03/20 00:22:58;;;;;;;4.82;4.53;;;;;;;;;;1617602;30;21611;-64
2022/03/20 00:23:49;;;;;;;4.75;4.43;;;;;;;;;;1618874;30;21635;-64
2022/03/20 00:24:42;;;;;;;4.45;4.15;;;;;;;;;;1619365;30;22285;-64
2022/03/20 00:25:34;;;;;;;4.15;3.85;;;;;;;;;;1617360;30;21828;-63
2022/03/20 00:26:26;;;;;;;4.22;3.92;;;;;;;;;;1616215;30;21856;-63
2022/03/20 00:27:18;;;;;;;5.00;4.60;;;;;;;;;;1621085;30;22337;-63
2022/03/20 00:28:12;;;;;;;4.60;4.25;;;;;;;;;;1617598;30;21776;-64
2022/03/20 00:29:04;;;;;;;4.50;4.10;;;;;;;;;;1617991;30;22609;-63
2022/03/20 00:29:57;;;;;;;6.30;4.07;;;;;;;;;;1612232;30;21990;-64
2022/03/20 00:30:49;;;;;;;4.28;3.97;;;;;;;;;;1617567;30;21788;-63
2022/03/20 00:31:41;;;;;;;4.78;4.18;;;;;;;;;;1619392;30;21722;-64
2022/03/20 00:32:32;;;;;;;4.53;4.22;;;;;;;;;;1618480;30;22629;-63
2022/03/20 00:33:25;;;;;;;3.55;3.25;;;;;;;;;;1618768;30;21669;-63
2022/03/20 00:34:16;;;;;;;4.22;3.83;;;;;;;;;;1618515;30;22718;-63
2022/03/20 00:35:09;;;;;;;4.40;4.10;;;;;;;;;;1620978;30;21633;-63
2022/03/20 00:36:00;;;;;;;4.45;4.10;;;;;;;;;;1617904;30;21853;-62
2022/03/20 00:36:52;;;;;;;5.93;4.00;;;;;;;;;;1617797;30;21787;-63
2022/03/20 00:37:44;;;;;;;4.75;4.35;;;;;;;;;;1617791;30;21646;-63
2022/03/20 00:38:38;;;;;;;4.00;3.70;;;;;;;;;;1618225;30;21843;-64
2022/03/20 00:39:29;;;;;;;4.10;3.75;;;;;;;;;;1617376;30;22084;-63
2022/03/20 00:40:22;;;;;;;5.78;4.55;;;;;;;;;;1618149;30;21975;-63
2022/03/20 00:41:13;;;;;;;4.47;3.58;;;;;;;;;;1617781;30;21725;-64
2022/03/20 00:42:06;;;;;;;3.90;3.50;;;;;;;;;;1617604;30;21631;-63
2022/03/20 00:42:57;;;;;;;3.63;3.33;;;;;;;;;;1618295;30;21588;-64
2022/03/20 00:43:50;;;;;;;4.45;4.05;;;;;;;;;;1617520;30;21619;-63
2022/03/20 00:44:41;;;;;;;4.25;3.95;;;;;;;;;;1617227;30;21593;-64
2022/03/20 00:45:34;;;;;;;4.22;3.83;;;;;;;;;;1619266;30;21882;-64
2022/03/20 00:46:27;;;;;;;3.75;3.45;;;;;;;;;;1617899;30;22005;-63
2022/03/20 00:47:19;;;;;;;3.78;3.53;;;;;;;;;;1618732;30;21588;-64
2022/03/20 00:48:10;;;;;;;3.63;3.33;;;;;;;;;;1618040;30;22303;-64
2022/03/20 00:49:03;;;;;;;3.80;3.50;;;;;;;;;;1619169;30;21711;-63
2022/03/20 00:49:54;;;;;;;3.70;3.40;;;;;;;;;;1618059;30;21649;-64
2022/03/20 00:50:46;;;;;;;3.45;3.25;;;;;;;;;;1616569;30;21829;-63
2022/03/20 00:51:38;;;;;;;4.03;3.72;;;;;;;;;;1618714;30;21739;-63
2022/03/20 00:52:32;;;;;;;3.97;3.67;;;;;;;;;;1617296;30;22982;-63
2022/03/20 00:53:23;;;;;;;3.13;2.90;;;;;;;;;;1615044;30;21610;-63
2022/03/20 00:54:17;;;;;;;3.35;3.13;;;;;;;;;;1617963;30;21910;-63
2022/03/20 00:55:09;;;;;;;3.85;3.55;;;;;;;;;;1618056;30;21832;-63
2022/03/20 00:56:01;;;;;;;4.63;3.80;;;;;;;;;;1618702;30;22368;-63
2022/03/20 00:56:53;;;;;;;3.75;3.55;;;;;;;;;;1617938;30;21618;-63
2022/03/20 00:57:45;;;;;;;4.00;3.67;;;;;;;;;;1621215;30;21684;-63
2022/03/20 00:58:36;;;;;;;4.13;3.40;;;;;;;;;;1614326;30;21691;-63
2022/03/20 00:59:28;;;;;;;3.53;3.20;;;;;;;;;;1618995;30;21886;-64
2022/03/20 01:00:20;;;;;;;3.58;3.28;;;;;;;;;;1619447;30;21626;-64
2022/03/20 01:01:14;;;;;;;3.50;3.20;;;;;;;;;;1618042;30;21592;-64
2022/03/20 01:02:05;;;;;;;3.70;3.40;;;;;;;;;;1617821;30;21614;-64
2022/03/20 01:02:57;;;;;;;6.47;3.13;;;;;;;;;;1617134;30;21937;-64
2022/03/20 01:03:48;;;;;;;4.28;3.00;;;;;;;;;;1617312;30;21618;-64
2022/03/20 01:04:41;;;;;;;4.50;3.10;;;;;;;;;;1615796;30;21616;-63
2022/03/20 01:05:32;;;;;;;4.10;3.72;;;;;;;;;;1617723;30;22305;-64
2022/03/20 01:06:25;;;;;;;3.40;3.10;;;;;;;;;;1616621;30;21840;-63
2022/03/20 01:07:16;;;;;;;3.05;2.85;;;;;;;;;;1618635;30;21622;-64
2022/03/20 01:08:09;;;;;;;3.42;3.13;;;;;;;;;;1621936;30;22640;-64
2022/03/20 01:09:00;;;;;;;9.45;3.40;;;;;;;;;;1617589;30;22409;-64
2022/03/20 01:09:54;;;;;;;3.30;3.10;;;;;;;;;;1617718;30;22394;-63
2022/03/20 01:10:45;;;;;;;6.88;2.67;;;;;;;;;;1616130;30;21614;-64
2022/03/20 01:11:37;;;;;;;7.65;3.05;;;;;;;;;;1616687;30;22810;-64
2022/03/20 01:12:29;;;;;;;3.38;3.15;;;;;;;;;;1617090;30;22093;-64
2022/03/20 01:13:21;;;;;;;5.88;3.42;;;;;;;;;;1618872;30;21720;-63
2022/03/20 01:14:13;;;;;;;6.32;2.90;;;;;;;;;;1617875;30;21982;-64
2022/03/20 01:15:11;;;;;;;3.92;2.80;;;;;;;;;;1619055;30;22024;-63
2022/03/20 01:16:03;;;;;;;4.15;2.58;;;;;;;;;;1618009;30;21879;-64
2022/03/20 01:16:55;;;;;;;3.28;3.00;;;;;;;;;;1620504;30;21789;-64
2022/03/20 01:17:47;;;;;;;3.53;3.22;;;;;;;;;;1617767;30;21998;-64
2022/03/20 01:18:39;;;;;;;4.03;2.70;;;;;;;;;;1618219;30;22382;-64
2022/03/20 01:19:31;;;;;;;2.90;2.70;;;;;;;;;;1619013;30;21659;-64
2022/03/20 01:20:24;;;;;;;4.80;3.10;;;;;;;;;;1617079;30;22005;-64
2022/03/20 01:21:15;;;;;;;4.90;3.30;;;;;;;;;;1619331;30;21657;-63
2022/03/20 01:22:08;;;;;;;3.40;3.10;;;;;;;;;;1620066;30;21994;-64
2022/03/20 01:23:00;;;;;;;4.82;2.75;;;;;;;;;;1617344;30;21684;-64
2022/03/20 01:23:52;;;;;;;2.90;2.70;;;;;;;;;;1619115;30;22156;-64
2022/03/20 01:24:44;;;;;;;3.22;2.92;;;;;;;;;;1617283;30;21622;-65
2022/03/20 01:25:39;;;;;;;3.40;3.17;;;;;;;;;;1618386;30;22462;-64
2022/03/20 01:26:30;;;;;;;3.85;2.78;;;;;;;;;;1617648;30;21599;-64
2022/03/20 01:27:22;;;;;;;4.22;2.88;;;;;;;;;;1619204;30;21606;-64
2022/03/20 01:28:14;;;;;;;5.20;2.80;;;;;;;;;;1617934;30;21836;-64
2022/03/20 01:29:06;;;;;;;3.08;2.78;;;;;;;;;;1617857;30;22339;-64
2022/03/20 01:29:58;;;;;;;8.85;2.63;;;;;;;;;;1617292;30;21951;-64
2022/03/20 01:30:50;;;;;;;4.70;3.00;;;;;;;;;;1618226;30;21616;-64
2022/03/20 01:31:41;;;;;;;5.72;2.78;;;;;;;;;;1617395;30;22003;-64
2022/03/20 01:32:34;;;;;;;4.35;3.58;;;;;;;;;;1617379;30;21869;-64
2022/03/20 01:33:25;;;;;;;2.40;2.20;;;;;;;;;;1617061;29;21623;-64
2022/03/20 01:34:18;;;;;;;5.05;2.45;;;;;;;;;;1617671;30;21943;-63
2022/03/20 01:35:09;;;;;;;4.75;2.55;;;;;;;;;;1617293;30;21614;-63
2022/03/20 01:36:02;;;;;;;7.30;2.83;;;;;;;;;;1619957;30;21557;-63
2022/03/20 01:36:53;;;;;;;2.85;2.63;;;;;;;;;;1617979;30;22366;-64
2022/03/20 01:37:46;;;;;;;5.22;2.70;;;;;;;;;;1617820;30;22359;-64
2022/03/20 01:38:37;;;;;;;2.60;2.35;;;;;;;;;;1618762;30;21828;-63
2022/03/20 01:39:30;;;;;;;2.88;2.40;;;;;;;;;;1619112;30;22045;-63
2022/03/20 01:40:21;;;;;;;6.22;2.40;;;;;;;;;;1617322;30;21649;-63
2022/03/20 01:41:15;;;;;;;4.97;2.78;;;;;;;;;;1617476;30;22499;-63
2022/03/20 01:42:07;;;;;;;5.30;2.55;;;;;;;;;;1619023;30;21642;-64
2022/03/20 01:42:59;;;;;;;2.80;2.60;;;;;;;;;;1617145;30;21647;-64
2022/03/20 01:43:53;;;;;;;2.60;2.33;;;;;;;;;;1617297;30;22085;-64
2022/03/20 01:44:46;;;;;;;5.10;2.88;;;;;;;;;;1617293;30;22530;-63
2022/03/20 01:45:37;;;;;;;3.25;2.25;;;;;;;;;;1617094;30;21643;-64
2022/03/20 01:46:32;;;;;;;3.58;2.72;;;;;;;;;;1617703;30;22533;-64
2022/03/20 01:47:23;;;;;;;2.75;2.50;;;;;;;;;;1619026;30;21628;-63
2022/03/20 01:48:16;;;;;;;2.80;2.22;;;;;;;;;;1617375;30;21905;-63
2022/03/20 01:49:07;;;;;;;2.40;2.20;;;;;;;;;;1617576;30;21744;-63
2022/03/20 01:49:59;;;;;;;2.92;2.67;;;;;;;;;;1617924;30;21600;-63
2022/03/20 01:50:50;;;;;;;2.40;2.20;;;;;;;;;;1616784;30;22397;-63
2022/03/20 01:52:54;;;;;;;2.47;2.28;;;;;;;;;;1619959;30;21702;-63
2022/03/20 01:53:46;;;;;;;5.22;2.15;;;;;;;;;;1616694;30;22476;-63
2022/03/20 01:54:39;;;;;;;2.50;2.30;;;;;;;;;;1619330;30;21605;-63
2022/03/20 01:55:30;;;;;;;2.67;2.05;;;;;;;;;;1617718;30;21959;-63
2022/03/20 01:56:24;;;;;;;2.85;2.00;;;;;;;;;;1618317;30;21766;-63
2022/03/20 01:57:19;;;;;;;2.55;2.10;;;;;;;;;;1616931;30;22635;-63
2022/03/20 01:58:11;;;;;;;4.38;2.63;;;;;;;;;;1618832;30;21770;-63
2022/03/20 01:59:03;;;;;;;2.25;2.05;;;;;;;;;;1618490;30;21677;-64
2022/03/20 01:59:55;;;;;;;3.70;2.20;;;;;;;;;;1617750;30;22029;-64
2022/03/20 02:00:46;;;;;;;1.90;1.80;;;;;;;;;;1617342;30;21660;-63
2022/03/20 02:01:39;;;;;;;2.28;1.98;;;;;;;;;;1617307;30;21670;-63
2022/03/20 02:02:30;;;;;;;4.68;1.90;;;;;;;;;;1617752;30;21616;-65
2022/03/20 02:03:22;;;;;;;3.25;2.28;;;;;;;;;;1617860;30;21604;-63
2022/03/20 02:04:15;;;;;;;2.15;1.83;;;;;;;;;;1617446;30;21991;-64
2022/03/20 02:05:09;;;;;;;2.97;2.13;;;;;;;;;;1617584;30;21792;-63
2022/03/20 02:06:01;;;;;;;5.70;1.90;;;;;;;;;;1617411;30;21754;-63
2022/03/20 02:06:54;;;;;;;2.20;1.95;;;;;;;;;;1617152;30;21889;-63
2022/03/20 02:07:47;;;;;;;2.60;2.00;;;;;;;;;;1617203;30;22015;-64
2022/03/20 02:08:39;;;;;;;2.30;2.00;;;;;;;;;;1621583;30;22692;-63
2022/03/20 02:09:31;;;;;;;2.58;2.20;;;;;;;;;;1614912;30;22430;-64
2022/03/20 02:10:35;;;;;;;2.80;2.05;;;;;;;;;;1617514;30;22282;-64
2022/03/20 02:11:29;;;;;;;2.55;2.35;;;;;;;;;;1617601;30;22389;-64
2022/03/20 02:12:21;;;;;;;2.28;2.08;;;;;;;;;;1617372;30;22671;-64
2022/03/20 02:13:12;;;;;;;2.38;2.03;;;;;;;;;;1617606;30;21657;-64
2022/03/20 02:14:06;;;;;;;4.22;1.75;;;;;;;;;;1617781;30;22438;-65
2022/03/20 02:14:58;;;;;;;2.33;2.13;;;;;;;;;;1617123;30;21935;-64
2022/03/20 02:15:51;;;;;;;2.28;2.08;;;;;;;;;;1617663;30;21761;-64
2022/03/20 02:16:44;;;;;;;2.22;2.03;;;;;;;;;;1619685;30;21710;-64
2022/03/20 02:17:38;;;;;;;1.77;1.63;;;;;;;;;;1617706;30;21669;-64
2022/03/20 02:18:31;;;;;;;4.63;1.65;;;;;;;;;;1617575;30;21611;-64
2022/03/20 02:19:24;;;;;;;2.33;2.13;;;;;;;;;;1617553;30;21655;-64
2022/03/20 02:20:17;;;;;;;2.50;1.90;;;;;;;;;;1616937;30;22087;-64
2022/03/20 02:21:10;;;;;;;2.90;2.33;;;;;;;;;;1616106;30;22379;-64
2022/03/20 02:22:02;;;;;;;3.10;2.00;;;;;;;;;;1619256;30;21914;-63
2022/03/20 02:22:54;;;;;;;2.22;2.05;;;;;;;;;;1617944;30;22202;-63
2022/03/20 02:23:46;;;;;;;1.88;1.65;;;;;;;;;;1617183;30;22754;-63
2022/03/20 02:24:40;;;;;;;2.10;2.00;;;;;;;;;;1617842;30;22516;-63
2022/03/20 02:25:32;;;;;;;2.28;1.88;;;;;;;;;;1617485;30;21644;-64
2022/03/20 02:26:25;;;;;;;1.70;1.60;;;;;;;;;;1617142;30;21720;-63
2022/03/20 02:27:19;;;;;;;4.80;2.05;;;;;;;;;;1617745;30;21601;-64
2022/03/20 02:28:12;;;;;;;2.75;2.03;;;;;;;;;;1617599;30;21738;-63
2022/03/20 02:29:04;;;;;;;2.20;2.00;;;;;;;;;;1617395;30;21973;-63
2022/03/20 02:29:59;;;;;;;2.88;2.15;;;;;;;;;;1612946;30;22447;-63
2022/03/20 02:30:50;;;;;;;5.47;2.22;;;;;;;;;;1616336;30;21702;-63
2022/03/20 02:31:42;;;;;;;2.00;1.80;;;;;;;;;;1616931;30;22441;-63
2022/03/20 02:32:34;;;;;;;3.35;1.63;;;;;;;;;;1611804;30;21756;-64
2022/03/20 02:33:28;;;;;;;2.20;2.00;;;;;;;;;;1616794;30;21780;-63
2022/03/20 02:34:19;;;;;;;2.15;1.95;;;;;;;;;;1618984;30;21715;-63
2022/03/20 02:35:14;;;;;;;2.33;1.92;;;;;;;;;;1617683;30;22512;-63
2022/03/20 02:36:06;;;;;;;1.80;1.70;;;;;;;;;;1616899;30;21716;-63
2022/03/20 02:37:01;;;;;;;2.22;2.03;;;;;;;;;;1618854;30;21651;-63
2022/03/20 02:37:54;;;;;;;2.58;2.20;;;;;;;;;;1617552;30;22744;-63
2022/03/20 02:38:46;;;;;;;2.35;2.03;;;;;;;;;;1616402;30;21669;-63
2022/03/20 02:39:38;;;;;;;2.05;1.80;;;;;;;;;;1617044;30;22110;-63
2022/03/20 02:40:29;;;;;;;2.67;2.05;;;;;;;;;;1618077;30;21715;-63
2022/03/20 02:41:22;;;;;;;2.25;1.80;;;;;;;;;;1619764;29;21985;-64
2022/03/20 02:42:15;;;;;;;2.17;1.98;;;;;;;;;;1618157;30;21918;-64
2022/03/20 02:43:08;;;;;;;2.30;1.92;;;;;;;;;;1619358;30;22260;-64
2022/03/20 02:44:02;;;;;;;2.38;2.17;;;;;;;;;;1619692;30;21625;-64
2022/03/20 02:45:00;;;;;;;2.10;1.90;;;;;;;;;;1620553;30;22415;-64
2022/03/20 02:45:51;;;;;;;2.45;2.05;;;;;;;;;;1618380;30;22307;-64
2022/03/20 02:46:44;;;;;;;2.63;1.98;;;;;;;;;;1617801;30;21624;-64
2022/03/20 02:47:38;;;;;;;1.70;1.60;;;;;;;;;;1617826;30;21655;-64
2022/03/20 02:48:31;;;;;;;2.03;1.83;;;;;;;;;;1619145;30;21895;-65
2022/03/20 02:49:22;;;;;;;1.88;1.73;;;;;;;;;;1618570;30;22307;-64
2022/03/20 02:50:18;;;;;;;1.98;1.83;;;;;;;;;;1617900;30;21603;-65
2022/03/20 02:51:09;;;;;;;1.70;1.60;;;;;;;;;;1617507;30;21620;-64
2022/03/20 02:52:03;;;;;;;1.70;1.60;;;;;;;;;;1619577;30;21747;-63
2022/03/20 02:52:58;;;;;;;1.58;1.48;;;;;;;;;;1617300;30;21679;-63
2022/03/20 02:53:49;;;;;;;2.70;1.63;;;;;;;;;;1617914;30;22459;-63
2022/03/20 02:54:42;;;;;;;2.20;1.60;;;;;;;;;;1617930;30;21616;-64
2022/03/20 02:55:36;;;;;;;1.92;1.65;;;;;;;;;;1617604;30;22609;-64
2022/03/20 02:56:28;;;;;;;3.72;1.98;;;;;;;;;;1616690;30;21614;-64
2022/03/20 02:57:21;;;;;;;2.10;1.90;;;;;;;;;;1619463;30;21671;-64
2022/03/20 02:58:16;;;;;;;1.60;1.50;;;;;;;;;;1616916;30;21600;-64
2022/03/20 02:59:07;;;;;;;1.88;1.73;;;;;;;;;;1618463;30;21751;-63
2022/03/20 03:00:03;;;;;;;5.15;1.65;;;;;;;;;;1619405;30;21642;-64
2022/03/20 03:00:55;;;;;;;2.55;2.35;;;;;;;;;;1617696;30;21645;-63
2022/03/20 03:01:48;;;;;;;1.80;1.50;;;;;;;;;;1617912;30;21654;-64
2022/03/20 03:02:43;;;;;;;2.28;1.92;;;;;;;;;;1617979;30;22636;-64
2022/03/20 03:03:36;;;;;;;1.73;1.63;;;;;;;;;;1617693;30;21655;-64
2022/03/20 03:04:27;;;;;;;1.58;1.45;;;;;;;;;;1624103;30;21671;-64
2022/03/20 03:05:21;;;;;;;1.88;1.77;;;;;;;;;;1619421;30;22833;-64
2022/03/20 03:06:12;;;;;;;2.33;2.10;;;;;;;;;;1617740;30;21896;-63
2022/03/20 03:07:06;;;;;;;2.35;2.00;;;;;;;;;;1618281;30;21642;-63
2022/03/20 03:11:43;;;;;;;3.00;1.83;;;;;;;;;;1612148;30;21661;-64
2022/03/20 03:12:35;;;;;;;2.53;1.58;;;;;;;;;;1620353;30;21737;-64
2022/03/20 03:13:31;;;;;;;2.30;1.75;;;;;;;;;;1618643;30;21962;-64
2022/03/20 03:15:32;;;;;;;;;;;;;;;;;;1615082;30;21830;-64
2022/03/20 03:16:24;;;;;;;4.97;1.85;;;;;;;;;;1620137;30;21524;-64
2022/03/20 03:17:27;;;;;;;2.65;1.90;;;;;;;;;;1618331;30;21881;-64
2022/03/20 03:18:20;;;;;;;3.40;1.67;;;;;;;;;;1619354;30;21939;-64
2022/03/20 03:19:12;;;;;;;2.45;1.88;;;;;;;;;;1620150;30;21738;-64
2022/03/20 03:20:06;;;;;;;2.28;1.50;;;;;;;;;;1617694;30;22442;-64
2022/03/20 03:21:00;;;;;;;2.35;1.92;;;;;;;;;;1617268;30;22596;-64
2022/03/20 03:21:51;;;;;;;8.30;1.63;;;;;;;;;;1615442;30;22292;-64
2022/03/20 03:22:45;;;;;;;2.28;1.60;;;;;;;;;;1616873;30;21954;-64
2022/03/20 03:23:36;;;;;;;1.98;1.50;;;;;;;;;;1618072;30;22060;-64
2022/03/20 03:24:29;;;;;;;2.38;1.45;;;;;;;;;;1620855;30;21967;-64
2022/03/20 03:25:22;;;;;;;1.60;1.50;;;;;;;;;;1619655;30;21640;-64
2022/03/20 03:26:15;;;;;;;2.90;1.60;;;;;;;;;;1620476;30;21876;-64
2022/03/20 03:27:06;;;;;;;1.83;1.48;;;;;;;;;;1618298;30;21706;-63
2022/03/20 03:27:58;;;;;;;4.38;1.83;;;;;;;;;;1619688;30;21608;-64
2022/03/20 03:28:50;;;;;;;2.17;1.83;;;;;;;;;;1618294;30;22060;-64
2022/03/20 03:29:42;;;;;;;1.77;1.67;;;;;;;;;;1618971;30;22434;-64
2022/03/20 03:30:35;;;;;;;1.90;1.67;;;;;;;;;;1617485;30;21641;-64
2022/03/20 03:31:27;;;;;;;2.25;1.80;;;;;;;;;;1618894;30;21591;-64
2022/03/20 03:32:19;;;;;;;1.80;1.70;;;;;;;;;;1620802;30;21628;-64
2022/03/20 03:33:13;;;;;;;6.57;1.85;;;;;;;;;;1619083;30;21617;-64
2022/03/20 03:36:25;;;;;;;1.52;1.27;;;;;;;;;;1614881;30;21624;-64
2022/03/20 03:37:20;;;;;;;2.20;1.67;;;;;;;;;;1619776;30;22437;-64
2022/03/20 03:38:16;;;;;;;2.13;1.65;;;;;;;;;;1620156;30;22586;-64
2022/03/20 03:39:08;;;;;;;1.50;1.40;;;;;;;;;;1617838;30;21838;-64
2022/03/20 03:40:02;;;;;;;1.33;1.23;;;;;;;;;;1618262;30;21615;-64
2022/03/20 03:40:55;;;;;;;1.55;1.45;;;;;;;;;;1617441;30;21616;-64
2022/03/20 03:41:47;;;;;;;2.10;1.80;;;;;;;;;;1617058;30;21841;-64
2022/03/20 03:42:39;;;;;;;2.00;1.65;;;;;;;;;;1618226;30;22111;-64
2022/03/20 03:43:31;;;;;;;2.30;1.30;;;;;;;;;;1619291;30;21913;-64
2022/03/20 03:44:22;;;;;;;1.45;1.30;;;;;;;;;;1617630;30;22072;-64
2022/03/20 03:45:15;;;;;;;12.57;1.70;;;;;;;;;;1618143;30;21664;-64
2022/03/20 03:46:06;;;;;;;37.72;2.80;;;;;;;;;;1620492;30;21829;-64
2022/03/20 03:46:59;;;;;;;11.80;1.80;;;;;;;;;;1617012;30;21694;-64
2022/03/20 03:47:50;;;;;;;21.75;1.95;;;;;;;;;;1617903;30;22474;-64
2022/03/20 03:48:43;;;;;;;3.13;1.63;;;;;;;;;;1618848;30;21612;-65
2022/03/20 03:49:34;;;;;;;5.60;1.60;;;;;;;;;;1619872;30;22007;-65
2022/03/20 03:50:27;;;;;;;4.50;1.42;;;;;;;;;;1617271;30;22444;-64
2022/03/20 03:51:18;;;;;;;2.03;1.65;;;;;;;;;;1617521;30;22183;-64
2022/03/20 03:52:11;;;;;;;3.13;1.50;;;;;;;;;;1618627;30;21720;-64
2022/03/20 03:53:03;;;;;;;5.82;1.70;;;;;;;;;;1617770;30;22054;-64
2022/03/20 03:53:57;;;;;;;4.38;1.60;;;;;;;;;;1617915;30;21915;-64
2022/03/20 03:54:48;;;;;;;13.23;1.60;;;;;;;;;;1618353;30;21618;-64
2022/03/20 03:55:43;;;;;;;2.50;1.48;;;;;;;;;;1618248;30;22429;-64
2022/03/20 03:56:35;;;;;;;3.90;1.48;;;;;;;;;;1618127;30;21889;-64
2022/03/20 03:57:28;;;;;;;4.32;1.52;;;;;;;;;;1619926;30;22316;-64
2022/03/20 03:58:19;;;;;;;6.40;1.77;;;;;;;;;;1616361;30;22528;-65
2022/03/20 03:59:11;;;;;;;6.20;1.92;;;;;;;;;;1618481;30;21644;-64
2022/03/20 04:00:04;;;;;;;6.03;1.40;;;;;;;;;;1620460;30;21643;-64
2022/03/20 04:00:56;;;;;;;2.78;1.60;;;;;;;;;;1618778;30;21649;-65
2022/03/20 04:01:49;;;;;;;2.25;1.55;;;;;;;;;;1620037;30;21701;-64
2022/03/20 04:02:40;;;;;;;2.15;1.80;;;;;;;;;;1618681;30;21637;-65
2022/03/20 04:03:33;;;;;;;2.35;1.48;;;;;;;;;;1619967;30;21847;-64
2022/03/20 04:04:24;;;;;;;2.88;1.55;;;;;;;;;;1618919;30;21886;-64
2022/03/20 04:05:17;;;;;;;2.15;1.27;;;;;;;;;;1620565;30;21544;-64
2022/03/20 04:06:09;;;;;;;2.67;1.67;;;;;;;;;;1619950;30;22557;-64
2022/03/20 04:07:02;;;;;;;4.35;1.65;;;;;;;;;;1621397;30;21598;-64
2022/03/20 04:07:53;;;;;;;4.90;1.48;;;;;;;;;;1620773;30;21735;-64
2022/03/20 04:08:45;;;;;;;2.70;1.67;;;;;;;;;;1619127;30;21619;-64
2022/03/20 04:09:38;;;;;;;1.52;1.42;;;;;;;;;;1621979;30;21658;-64
2022/03/20 04:10:31;;;;;;;5.93;1.70;;;;;;;;;;1619906;30;21789;-65
2022/03/20 04:11:22;;;;;;;8.23;1.60;;;;;;;;;;1618707;30;22470;-64
2022/03/20 04:12:15;;;;;;;2.15;1.30;;;;;;;;;;1621626;30;21604;-64
2022/03/20 04:13:06;;;;;;;2.08;1.73;;;;;;;;;;1619942;30;22510;-64
2022/03/20 04:13:59;;;;;;;2.47;1.65;;;;;;;;;;1619434;30;21938;-64
2022/03/20 04:14:50;;;;;;;3.47;1.80;;;;;;;;;;1618816;30;21717;-64
2022/03/20 04:15:42;;;;;;;2.17;1.77;;;;;;;;;;1619151;30;21884;-65
2022/03/20 04:16:34;;;;;;;2.35;1.85;;;;;;;;;;1620680;30;21638;-64
2022/03/20 04:17:26;;;;;;;1.70;1.60;;;;;;;;;;1618909;30;21655;-65
2022/03/20 04:18:18;;;;;;;1.67;1.23;;;;;;;;;;1620646;30;22133;-64
2022/03/20 04:19:11;;;;;;;2.92;1.45;;;;;;;;;;1618833;30;22436;-64
2022/03/20 04:20:03;;;;;;;5.70;1.38;;;;;;;;;;1619050;30;21853;-64
2022/03/20 04:20:56;;;;;;;2.70;1.83;;;;;;;;;;1618298;30;22522;-63
2022/03/20 04:21:48;;;;;;;1.67;1.50;;;;;;;;;;1619100;30;21649;-63
2022/03/20 04:23:42;;;;;;;2.38;1.50;;;;;;;;;;1621399;30;22455;-63
2022/03/20 04:23:56;;;;;;;2.20;1.52;;;;;;;;;;1619359;30;21761;-64
2022/03/20 04:24:50;;;;;;;2.42;1.50;;;;;;;;;;1618437;30;21761;-63
2022/03/20 04:25:41;;;;;;;4.20;1.58;;;;;;;;;;1620415;30;21916;-63
2022/03/20 04:26:34;;;;;;;6.25;1.60;;;;;;;;;;1619295;30;21589;-63
2022/03/20 04:27:26;;;;;;;2.22;1.77;;;;;;;;;;1620717;30;22433;-63
2022/03/20 04:28:19;;;;;;;2.05;1.42;;;;;;;;;;1617787;30;21837;-63
2022/03/20 04:29:10;;;;;;;2.20;1.42;;;;;;;;;;1620985;30;21790;-63
2022/03/20 04:30:03;;;;;;;1.45;1.20;;;;;;;;;;1620406;30;21791;-64
2022/03/20 04:30:54;;;;;;;1.40;1.30;;;;;;;;;;1619392;30;22002;-63
2022/03/20 04:31:47;;;;;;;3.45;1.23;;;;;;;;;;1617969;30;21570;-63
2022/03/20 04:32:38;;;;;;;1.65;1.52;;;;;;;;;;1619270;30;21658;-63
2022/03/20 04:33:31;;;;;;;3.38;1.60;;;;;;;;;;1619352;30;22025;-64
2022/03/20 04:34:23;;;;;;;7.38;1.73;;;;;;;;;;1619003;30;21811;-64
2022/03/20 04:35:15;;;;;;;3.60;1.20;;;;;;;;;;1619490;30;21614;-63
2022/03/20 04:36:09;;;;;;;2.33;1.58;;;;;;;;;;1621045;30;21692;-63
2022/03/20 04:37:06;;;;;;;4.43;1.30;;;;;;;;;;1618372;30;21600;-64
2022/03/20 04:37:57;;;;;;;3.67;1.50;;;;;;;;;;1620368;30;21650;-64
2022/03/20 04:38:50;;;;;;;1.65;1.25;;;;;;;;;;1618667;30;22654;-64
2022/03/20 04:39:41;;;;;;;7.63;1.73;;;;;;;;;;1618325;30;21646;-64
2022/03/20 04:40:35;;;;;;;3.85;1.20;;;;;;;;;;1619681;30;22231;-64
2022/03/20 04:41:26;;;;;;;1.73;1.20;;;;;;;;;;1620752;30;21611;-63
2022/03/20 04:42:19;;;;;;;2.75;1.30;;;;;;;;;;1620597;30;22531;-64
2022/03/20 04:43:10;;;;;;;2.95;1.45;;;;;;;;;;1618606;30;21656;-64
2022/03/20 04:44:03;;;;;;;3.40;1.60;;;;;;;;;;1618858;30;21599;-63
2022/03/20 04:44:54;;;;;;;5.82;1.20;;;;;;;;;;1622154;30;22406;-64
2022/03/20 04:45:46;;;;;;;1.75;1.33;;;;;;;;;;1618375;30;21755;-63
2022/03/20 04:46:38;;;;;;;1.80;1.40;;;;;;;;;;1620008;30;22041;-64
2022/03/20 04:58:31;;;;;;;2.53;1.25;;;;;;;;;;1612729;30;21614;-64
2022/03/20 04:59:22;;;;;;;1.83;1.27;;;;;;;;;;1623423;30;22504;-64
2022/03/20 05:00:15;;;;;;;2.03;1.13;;;;;;;;;;1625449;30;21984;-64
2022/03/20 05:01:08;;;;;;;1.55;1.30;;;;;;;;;;1619491;30;22102;-64
2022/03/20 05:02:00;;;;;;;1.70;1.17;;;;;;;;;;1620069;30;21905;-64
2022/03/20 05:02:52;;;;;;;2.15;1.38;;;;;;;;;;1620046;30;22062;-64
2022/03/20 05:03:44;;;;;;;3.67;1.17;;;;;;;;;;1618028;30;24082;-64
2022/03/20 05:04:36;;;;;;;2.50;1.55;;;;;;;;;;1619531;30;22694;-64
2022/03/20 05:05:29;;;;;;;1.50;1.10;;;;;;;;;;1619899;30;22017;-64
2022/03/20 05:06:20;;;;;;;2.88;1.27;;;;;;;;;;1621229;30;21962;-63
2022/03/20 05:07:12;;;;;;;2.03;1.40;;;;;;;;;;1619267;30;21747;-64
2022/03/20 05:08:04;;;;;;;2.08;1.63;;;;;;;;;;1619593;30;21591;-63
2022/03/20 05:13:19;;;;;;;1.88;1.08;;;;;;;;;;1618364;30;21941;-64
2022/03/20 05:13:41;;;;;;;3.78;1.40;;;;;;;;;;1618824;30;21608;-64
2022/03/20 05:14:33;;;;;;;2.00;1.35;;;;;;;;;;1619462;30;21812;-64
2022/03/20 05:15:26;;;;;;;6.60;1.50;;;;;;;;;;1621331;30;21683;-65
2022/03/20 05:16:18;;;;;;;6.70;1.50;;;;;;;;;;1621738;30;21603;-65
2022/03/20 05:17:10;;;;;;;2.03;1.10;;;;;;;;;;1618369;30;21616;-63
2022/03/20 05:18:03;;;;;;;4.53;1.27;;;;;;;;;;1618047;30;21827;-64
2022/03/20 05:18:54;;;;;;;5.07;1.40;;;;;;;;;;1618913;30;21894;-64
2022/03/20 05:19:46;;;;;;;3.47;1.50;;;;;;;;;;1618537;30;22051;-64
2022/03/20 05:20:38;;;;;;;1.42;0.95;;;;;;;;;;1618873;30;21673;-64
2022/03/20 05:21:30;;;;;;;3.75;1.50;;;;;;;;;;1618687;30;21591;-64
2022/03/20 05:22:22;;;;;;;2.65;1.40;;;;;;;;;;1619789;30;21645;-64
2022/03/20 05:23:14;;;;;;;2.28;1.20;;;;;;;;;;1619992;30;21728;-65
2022/03/20 05:24:09;;;;;;;5.40;1.42;;;;;;;;;;1620343;30;21734;-64
2022/03/20 05:25:03;;;;;;;1.08;0.98;;;;;;;;;;1617955;30;21615;-64
2022/03/20 05:25:54;;;;;;;5.43;1.20;;;;;;;;;;1617292;30;22406;-64
2022/03/20 05:26:48;;;;;;;3.67;1.20;;;;;;;;;;1613332;30;22420;-65
2022/03/20 05:27:39;;;;;;;1.70;1.40;;;;;;;;;;1613808;30;22064;-64
2022/03/20 05:28:31;;;;;;;2.03;1.15;;;;;;;;;;1620432;30;22280;-64
2022/03/20 05:29:24;;;;;;;2.42;1.17;;;;;;;;;;1618082;30;22297;-65
2022/03/20 05:30:16;;;;;;;1.33;1.10;;;;;;;;;;1618609;30;21592;-63
2022/03/20 05:31:07;;;;;;;2.95;1.50;;;;;;;;;;1620076;30;21859;-63
2022/03/20 05:32:02;;;;;;;1.67;1.17;;;;;;;;;;1619102;30;21653;-63
2022/03/20 05:32:55;;;;;;;3.25;1.20;;;;;;;;;;1618228;30;21602;-63
2022/03/20 05:33:46;;;;;;;1.90;1.40;;;;;;;;;;1617908;30;22542;-64
2022/03/20 05:34:39;;;;;;;2.03;1.52;;;;;;;;;;1618961;30;21642;-64
2022/03/20 05:35:31;;;;;;;2.50;1.20;;;;;;;;;;1618628;30;22450;-64
2022/03/20 05:36:28;;;;;;;4.28;1.35;;;;;;;;;;1617867;30;22198;-64
2022/03/20 05:37:20;;;;;;;4.25;1.42;;;;;;;;;;1618001;30;22512;-64
2022/03/20 05:38:13;;;;;;;4.25;1.50;;;;;;;;;;1619824;30;21610;-64